createdAt,value
2018-10-12T00:05:18.008Z,44.00
2018-10-12T00:07:46.412Z,43.70
2018-10-12T00:13:00.458Z,44.70
2018-10-12T00:15:29.362Z,44.50
2018-10-12T00:22:09.760Z,44.40
2018-10-12T00:25:11.527Z,44.10
2018-10-12T00:30:32.586Z,44.10
2018-10-12T00:35:53.989Z,43.90
2018-10-12T00:38:21.961Z,43.80
2018-10-12T00:46:47.216Z,44.10
2018-10-12T00:49:15.797Z,44.50
2018-10-12T00:57:48.506Z,43.80
2018-10-12T01:09:24.926Z,43.70
2018-10-12T01:12:02.918Z,43.80
2018-10-12T01:14:32.467Z,43.80
2018-10-12T01:17:18.748Z,43.80
2018-10-12T01:22:49.603Z,43.50
2018-10-12T01:25:18.863Z,43.70
2018-10-12T01:27:47.647Z,43.80
2018-10-12T01:30:15.975Z,43.60
2018-10-12T01:32:49.489Z,43.40
2018-10-12T01:35:40.220Z,43.50
2018-10-12T01:38:08.886Z,43.50
2018-10-12T01:40:37.119Z,43.40
2018-10-12T01:43:15.262Z,43.30
2018-10-12T01:45:43.372Z,43.20
2018-10-12T01:48:12.353Z,43.00
2018-10-12T01:50:55.963Z,43.30
2018-10-12T01:53:26.357Z,43.30
2018-10-12T01:56:01.124Z,43.20
2018-10-12T01:58:29.804Z,43.20
2018-10-12T02:04:19.280Z,43.20
2018-10-12T02:06:56.939Z,43.20
2018-10-12T02:09:24.950Z,43.00
2018-10-12T02:12:12.964Z,43.00
2018-10-12T02:14:40.952Z,43.10
2018-10-12T02:17:09.027Z,43.20
2018-10-12T02:24:35.250Z,42.90
2018-10-12T02:27:17.343Z,43.00
2018-10-12T02:29:45.449Z,43.00
2018-10-12T02:35:22.739Z,43.10
2018-10-12T02:37:51.403Z,42.90
2018-10-12T02:40:19.624Z,42.80
2018-10-12T02:42:48.335Z,42.70
2018-10-12T02:45:37.419Z,42.80
2018-10-12T02:48:05.864Z,43.00
2018-10-12T02:50:33.659Z,43.20
2018-10-12T02:55:54.229Z,43.10
2018-10-12T02:58:28.426Z,42.90
2018-10-12T03:09:54.933Z,42.70
2018-10-12T03:15:26.985Z,42.90
2018-10-12T03:20:47.868Z,42.80
2018-10-12T03:26:19.598Z,42.90
2018-10-12T03:28:47.842Z,42.70
2018-10-12T03:31:22.008Z,42.70
2018-10-12T03:33:51.153Z,42.80
2018-10-12T03:36:19.762Z,42.70
2018-10-12T03:39:10.641Z,42.30
2018-10-12T03:41:38.696Z,42.30
2018-10-12T03:44:10.934Z,42.10
2018-10-12T03:46:39.480Z,42.20
2018-10-12T03:49:07.799Z,42.30
2018-10-12T03:51:35.686Z,42.40
2018-10-12T03:54:16.558Z,42.50
2018-10-12T03:56:56.711Z,42.60
2018-10-12T03:59:24.709Z,42.70
2018-10-12T04:01:53.279Z,42.70
2018-10-12T04:04:39.283Z,42.50
2018-10-12T04:07:42.788Z,42.40
2018-10-12T04:16:38.890Z,42.70
2018-10-12T04:19:25.235Z,42.70
2018-10-12T04:21:54.233Z,43.20
2018-10-12T04:27:34.834Z,42.60
2018-10-12T04:30:26.961Z,42.70
2018-10-12T04:35:59.595Z,42.50
2018-10-12T04:39:12.292Z,42.70
2018-10-12T04:44:46.961Z,42.80
2018-10-12T04:50:02.028Z,42.70
2018-10-12T04:52:31.428Z,42.80
2018-10-12T04:54:59.158Z,42.80
2018-10-12T04:57:38.345Z,42.80
2018-10-12T05:00:06.595Z,43.00
2018-10-12T05:08:50.413Z,43.10
2018-10-12T05:11:19.278Z,43.00
2018-10-12T05:13:47.630Z,43.00
2018-10-12T05:16:27.875Z,42.80
2018-10-12T05:21:50.106Z,42.70
2018-10-12T05:24:20.152Z,42.50
2018-10-12T05:27:06.983Z,42.70
2018-10-12T05:29:35.776Z,43.00
2018-10-12T05:35:32.919Z,42.60
2018-10-12T05:38:01.061Z,42.50
2018-10-12T05:40:29.250Z,42.60
2018-10-12T05:43:11.500Z,42.70
2018-10-12T06:03:28.829Z,44.00
2018-10-12T06:09:00.799Z,44.10
2018-10-12T06:11:29.308Z,44.50
2018-10-12T06:13:57.819Z,44.60
2018-10-12T06:16:25.748Z,45.00
2018-10-12T06:18:54.168Z,45.30
2018-10-12T06:21:22.104Z,45.40
2018-10-12T06:24:04.947Z,45.80
2018-10-12T06:32:44.232Z,45.40
2018-10-12T06:35:15.407Z,45.60
2018-10-12T06:43:24.054Z,46.20
2018-10-12T06:45:52.023Z,46.30
2018-10-12T06:51:25.610Z,46.60
2018-10-12T06:53:55.755Z,46.70
2018-10-12T06:56:25.257Z,46.60
2018-10-12T06:58:54.622Z,46.70
2018-10-12T07:01:31.378Z,47.70
2018-10-12T07:04:00.200Z,47.10
2018-10-12T07:06:41.841Z,47.20
2018-10-12T07:09:11.985Z,47.50
2018-10-12T07:11:42.353Z,47.30
2018-10-12T07:14:10.490Z,47.30
2018-10-12T07:16:48.488Z,47.60
2018-10-12T07:22:19.654Z,47.50
2018-10-12T07:24:47.711Z,47.50
2018-10-12T07:27:15.699Z,47.60
2018-10-12T07:29:44.314Z,48.10
2018-10-12T07:35:16.216Z,49.10
2018-10-12T07:37:45.491Z,49.20
2018-10-12T07:40:12.612Z,49.10
2018-10-12T07:42:59.509Z,50.90
2018-10-12T07:45:27.419Z,51.20
2018-10-12T07:47:55.457Z,51.20
2018-10-12T07:50:37.283Z,51.70
2018-10-12T07:53:07.600Z,52.00
2018-10-12T07:55:36.439Z,52.00
2018-10-12T07:58:10.524Z,52.00
2018-10-12T08:03:27.767Z,51.70
2018-10-12T08:05:56.116Z,51.60
2018-10-12T08:08:25.628Z,51.60
2018-10-12T08:10:54.569Z,51.60
2018-10-12T08:13:29.184Z,51.40
2018-10-12T08:15:58.114Z,51.10
2018-10-12T08:18:27.107Z,50.70
2018-10-12T08:20:55.493Z,50.50
2018-10-12T08:23:23.759Z,50.00
2018-10-12T08:25:54.886Z,50.00
2018-10-12T08:28:23.363Z,50.00
2018-10-12T08:30:51.361Z,50.10
2018-10-12T08:33:20.996Z,50.10
2018-10-12T08:35:49.819Z,50.10
2018-10-12T08:38:17.907Z,50.20
2018-10-12T08:40:52.196Z,50.20
2018-10-12T08:43:21.576Z,50.20
2018-10-12T08:45:49.798Z,49.80
2018-10-12T08:48:19.606Z,49.70
2018-10-12T08:50:47.748Z,49.40
2018-10-12T08:53:16.907Z,49.10
2018-10-12T08:55:44.736Z,49.00
2018-10-12T08:58:20.754Z,48.00
2018-10-12T09:00:49.171Z,48.20
2018-10-12T09:03:17.102Z,48.20
2018-10-12T09:05:44.955Z,48.00
2018-10-12T09:08:18.049Z,47.80
2018-10-12T09:10:51.429Z,47.70
2018-10-12T09:16:22.711Z,47.10
2018-10-12T09:21:45.137Z,46.80
2018-10-12T09:24:13.403Z,46.60
2018-10-12T09:29:57.674Z,46.10
2018-10-12T09:32:31.584Z,46.30
2018-10-12T09:35:03.737Z,46.30
2018-10-12T09:37:36.397Z,46.30
2018-10-12T09:40:04.777Z,46.10
2018-10-12T09:42:40.029Z,47.00
2018-10-12T09:45:09.858Z,46.30
2018-10-12T09:47:45.309Z,46.30
2018-10-12T09:50:26.748Z,46.10
2018-10-12T09:52:56.596Z,45.80
2018-10-12T09:55:26.552Z,45.60
2018-10-12T09:58:03.252Z,46.00
2018-10-12T10:00:37.597Z,46.00
2018-10-12T10:05:47.924Z,46.20
2018-10-12T10:08:18.407Z,46.00
2018-10-12T10:10:52.347Z,45.80
2018-10-12T10:13:21.107Z,46.00
2018-10-12T10:15:49.839Z,46.10
2018-10-12T10:18:19.372Z,46.00
2018-10-12T10:20:53.192Z,46.20
2018-10-12T10:26:25.960Z,45.70
2018-10-12T10:28:55.931Z,45.60
2018-10-12T10:31:24.598Z,45.60
2018-10-12T10:33:53.715Z,45.20
2018-10-12T10:36:27.797Z,45.30
2018-10-12T10:38:57.787Z,45.80
2018-10-12T10:41:26.630Z,45.50
2018-10-12T10:43:54.727Z,45.20
2018-10-12T10:46:26.624Z,45.00
2018-10-12T10:48:54.324Z,44.30
2018-10-12T10:51:22.344Z,44.50
2018-10-12T10:53:50.854Z,44.50
2018-10-12T10:56:27.761Z,44.60
2018-10-12T10:58:59.922Z,44.30
2018-10-12T11:01:28.175Z,44.00
2018-10-12T11:04:02.969Z,43.80
2018-10-12T11:06:31.095Z,44.50
2018-10-12T11:08:58.979Z,43.80
2018-10-12T11:11:28.586Z,44.10
2018-10-12T11:13:56.763Z,42.90
2018-10-12T11:16:30.149Z,43.00
2018-10-12T11:18:59.395Z,43.00
2018-10-12T11:21:27.541Z,43.40
2018-10-12T11:23:55.538Z,43.10
2018-10-12T11:26:23.360Z,42.30
2018-10-12T11:28:51.670Z,41.80
2018-10-12T11:31:20.866Z,42.10
2018-10-12T11:33:49.211Z,41.50
2018-10-12T11:36:17.175Z,41.60
2018-10-12T11:38:54.608Z,41.10
2018-10-12T11:41:28.920Z,41.40
2018-10-12T11:43:56.822Z,41.40
2018-10-12T11:46:24.550Z,40.90
2018-10-12T11:48:52.281Z,40.80
2018-10-12T11:54:01.284Z,41.00
2018-10-12T11:56:32.479Z,41.90
2018-10-12T11:59:00.751Z,39.10
2018-10-12T12:01:32.816Z,39.40
2018-10-12T12:04:01.998Z,38.40
2018-10-12T12:06:30.982Z,37.70
2018-10-12T12:08:58.994Z,37.30
2018-10-12T12:11:27.120Z,37.70
2018-10-12T12:13:56.690Z,36.60
2018-10-12T12:16:24.486Z,37.10
2018-10-12T12:18:53.658Z,35.50
2018-10-12T12:21:23.373Z,36.20
2018-10-12T12:23:51.464Z,35.90
2018-10-12T12:26:20.428Z,35.80
2018-10-12T12:28:48.225Z,36.10
2018-10-12T12:31:16.045Z,35.70
2018-10-12T12:33:43.771Z,35.70
2018-10-12T12:36:12.906Z,35.50
2018-10-12T12:38:40.692Z,34.80
2018-10-12T12:41:08.781Z,34.40
2018-10-12T12:43:37.745Z,35.10
2018-10-12T12:46:06.257Z,35.20
2018-10-12T12:48:34.871Z,33.60
2018-10-12T12:51:02.755Z,33.40
2018-10-12T12:53:30.573Z,33.30
2018-10-12T12:55:59.494Z,33.70
2018-10-12T12:58:27.210Z,33.40
2018-10-12T13:00:55.537Z,33.20
2018-10-12T13:03:25.181Z,33.20
2018-10-12T13:05:53.132Z,33.40
2018-10-12T13:08:24.366Z,33.00
2018-10-12T13:10:54.052Z,33.70
2018-10-12T13:13:22.603Z,32.50
2018-10-12T13:15:51.037Z,33.00
2018-10-12T13:18:18.754Z,33.00
2018-10-12T13:20:46.536Z,32.60
2018-10-12T13:23:14.648Z,32.10
2018-10-12T13:25:47.004Z,31.90
2018-10-12T13:28:26.432Z,31.90
2018-10-12T13:30:55.462Z,32.80
2018-10-12T13:33:41.699Z,32.60
2018-10-12T13:36:09.964Z,31.60
2018-10-12T13:38:38.039Z,32.10
2018-10-12T13:41:09.978Z,32.10
2018-10-12T13:43:42.702Z,32.10
2018-10-12T13:46:11.537Z,32.20
2018-10-12T13:48:40.111Z,31.50
2018-10-12T13:54:15.806Z,30.40
2018-10-12T13:57:00.760Z,30.40
2018-10-12T13:59:32.157Z,30.00
2018-10-12T14:02:00.476Z,30.20
2018-10-12T14:04:31.631Z,30.00
2018-10-12T14:06:59.836Z,30.10
2018-10-12T14:16:12.172Z,29.70
2018-10-12T14:18:41.567Z,30.00
2018-10-12T14:24:13.966Z,29.50
2018-10-12T14:26:44.760Z,29.10
2018-10-12T14:29:12.839Z,29.10
2018-10-12T14:31:40.985Z,28.80
2018-10-12T14:34:09.045Z,28.60
2018-10-12T14:36:37.529Z,28.90
2018-10-12T14:39:22.820Z,28.80
2018-10-12T14:41:52.090Z,28.50
2018-10-12T14:44:40.208Z,28.60
2018-10-12T14:47:11.727Z,28.40
2018-10-12T14:49:41.190Z,28.20
2018-10-12T14:52:09.511Z,28.40
2018-10-12T14:54:37.910Z,28.50
2018-10-12T14:57:15.008Z,28.70
2018-10-12T14:59:47.128Z,28.10
2018-10-12T15:02:16.353Z,28.40
2018-10-12T15:05:39.105Z,28.00
2018-10-12T15:11:26.094Z,27.80
2018-10-12T15:13:54.267Z,28.50
2018-10-12T15:16:23.031Z,28.20
2018-10-12T15:18:55.699Z,27.70
2018-10-12T15:21:24.181Z,27.80
2018-10-12T15:23:59.533Z,27.80
2018-10-12T15:26:31.899Z,27.80
2018-10-12T15:29:08.711Z,27.40
2018-10-12T15:31:39.136Z,27.80
2018-10-12T15:34:06.876Z,27.70
2018-10-12T15:36:35.211Z,27.70
2018-10-12T15:39:04.703Z,27.50
2018-10-12T15:41:32.564Z,27.40
2018-10-12T15:44:00.561Z,27.50
2018-10-12T15:46:28.327Z,27.70
2018-10-12T15:48:56.632Z,29.10
2018-10-12T15:51:25.164Z,29.70
2018-10-12T15:54:05.777Z,28.70
2018-10-12T15:56:47.439Z,28.80
2018-10-12T15:59:15.764Z,29.30
2018-10-12T16:01:51.138Z,29.00
2018-10-12T16:07:41.272Z,29.00
2018-10-12T16:10:13.253Z,28.90
2018-10-12T16:18:37.419Z,31.00
2018-10-12T16:21:05.246Z,31.20
2018-10-12T16:23:38.005Z,31.20
2018-10-12T16:26:20.484Z,31.20
2018-10-12T16:28:48.843Z,31.00
2018-10-12T16:31:16.650Z,31.20
2018-10-12T16:33:46.097Z,30.80
2018-10-12T16:36:14.621Z,30.80
2018-10-12T16:38:48.787Z,31.00
2018-10-12T16:41:19.543Z,31.00
2018-10-12T16:43:47.724Z,31.20
2018-10-12T16:46:16.003Z,31.40
2018-10-12T16:52:33.360Z,31.70
2018-10-12T16:55:17.811Z,32.10
2018-10-12T16:57:49.483Z,32.40
2018-10-12T17:00:17.396Z,32.50
2018-10-12T17:02:45.339Z,32.80
2018-10-12T17:05:13.060Z,32.70
2018-10-12T17:07:41.215Z,33.60
2018-10-12T17:10:09.251Z,33.90
2018-10-12T17:12:38.031Z,34.00
2018-10-12T17:15:08.010Z,34.00
2018-10-12T17:17:37.076Z,33.90
2018-10-12T17:20:04.861Z,33.90
2018-10-12T17:22:33.018Z,33.80
2018-10-12T17:25:01.232Z,33.80
2018-10-12T17:27:28.962Z,33.80
2018-10-12T17:29:56.597Z,34.40
2018-10-12T17:32:24.414Z,34.50
2018-10-12T17:34:52.182Z,35.20
2018-10-12T17:37:20.862Z,35.40
2018-10-12T17:39:49.034Z,35.40
2018-10-12T17:42:18.608Z,35.60
2018-10-12T17:44:50.420Z,35.60
2018-10-12T17:47:18.898Z,35.80
2018-10-12T17:49:48.191Z,35.90
2018-10-12T17:52:15.872Z,35.80
2018-10-12T17:54:45.183Z,36.10
2018-10-12T17:57:12.981Z,36.10
2018-10-12T17:59:55.757Z,36.00
2018-10-12T18:02:23.607Z,36.00
2018-10-12T18:04:52.150Z,35.80
2018-10-12T18:07:19.918Z,36.30
2018-10-12T18:10:10.369Z,36.30
2018-10-12T18:12:39.092Z,36.40
2018-10-12T18:15:08.985Z,36.50
2018-10-12T18:17:36.673Z,36.70
2018-10-12T18:20:04.749Z,37.00
2018-10-12T18:22:39.830Z,37.00
2018-10-12T18:25:41.994Z,37.00
2018-10-12T18:28:10.318Z,37.30
2018-10-12T18:30:38.247Z,37.40
2018-10-12T18:33:08.554Z,37.50
2018-10-12T18:35:36.616Z,37.30
2018-10-12T18:47:15.271Z,37.50
2018-10-12T18:49:46.327Z,37.70
2018-10-12T18:52:17.020Z,37.90
2018-10-12T18:54:46.892Z,38.00
2018-10-12T18:57:16.392Z,38.00
2018-10-12T18:59:55.338Z,38.00
2018-10-12T19:02:23.917Z,39.00
2018-10-12T19:04:53.184Z,38.30
2018-10-12T19:07:26.210Z,38.20
2018-10-12T19:12:57.881Z,38.40
2018-10-12T19:15:30.373Z,38.50
2018-10-12T19:18:08.574Z,38.50
2018-10-12T19:20:39.444Z,38.60
2018-10-12T19:25:55.295Z,38.70
2018-10-12T19:28:30.349Z,38.80
2018-10-12T19:31:20.652Z,38.80
2018-10-12T19:33:50.912Z,38.70
2018-10-12T19:36:22.740Z,38.90
2018-10-12T19:38:53.936Z,38.90
2018-10-12T19:41:22.002Z,38.90
2018-10-12T19:44:02.010Z,38.90
2018-10-12T19:46:30.337Z,38.90
2018-10-12T19:49:03.509Z,39.00
2018-10-12T19:51:42.491Z,39.00
2018-10-12T19:54:14.141Z,39.10
2018-10-12T19:56:42.649Z,39.10
2018-10-12T19:59:10.709Z,39.10
2018-10-12T20:02:01.512Z,39.00
2018-10-12T20:04:30.406Z,39.10
2018-10-12T20:07:02.584Z,39.20
2018-10-12T20:09:32.428Z,39.30
2018-10-12T20:12:07.788Z,39.40
2018-10-12T20:14:36.522Z,39.30
2018-10-12T20:20:06.868Z,39.50
2018-10-12T20:22:41.275Z,39.50
2018-10-12T20:25:26.142Z,39.50
2018-10-12T20:27:54.903Z,39.70
2018-10-12T20:33:43.208Z,39.80
2018-10-12T20:36:11.295Z,40.00
2018-10-12T20:38:48.659Z,40.00
2018-10-12T20:41:24.381Z,40.00
2018-10-12T20:43:53.173Z,40.00
2018-10-12T20:49:41.020Z,39.90
2018-10-12T20:52:10.067Z,40.00
2018-10-12T20:54:38.826Z,40.10
2018-10-12T20:57:08.752Z,40.20
2018-10-12T20:59:43.320Z,40.30
2018-10-12T21:02:40.058Z,40.20
2018-10-12T21:05:09.657Z,40.30
2018-10-12T21:07:40.701Z,40.30
2018-10-12T21:10:20.961Z,40.30
2018-10-12T21:12:55.886Z,40.30
2018-10-12T21:15:24.531Z,40.40
2018-10-12T21:17:54.442Z,40.30
2018-10-12T21:20:22.530Z,40.40
2018-10-12T21:22:57.055Z,40.40
2018-10-12T21:25:25.036Z,40.50
2018-10-12T21:30:46.562Z,40.50
2018-10-12T21:33:15.356Z,40.70
2018-10-12T21:35:43.235Z,40.50
2018-10-12T21:44:12.557Z,40.60
2018-10-12T21:46:40.530Z,40.50
2018-10-12T21:49:12.377Z,40.50
2018-10-12T21:52:14.142Z,40.60
2018-10-12T21:57:46.025Z,40.70
2018-10-12T22:00:13.941Z,40.80
2018-10-12T22:02:46.460Z,40.70
2018-10-12T22:05:15.400Z,40.70
2018-10-12T22:07:53.728Z,40.60
2018-10-12T22:10:21.737Z,40.80
2018-10-12T22:12:56.543Z,40.90
2018-10-12T22:15:25.617Z,40.50
2018-10-12T22:17:53.319Z,40.50
2018-10-12T22:20:37.881Z,40.60
2018-10-12T22:23:10.975Z,40.50
2018-10-12T22:25:42.084Z,40.50
2018-10-12T22:28:11.364Z,40.90
2018-10-12T22:30:43.411Z,41.20
2018-10-12T22:33:13.936Z,41.00
2018-10-12T22:35:43.670Z,41.20
2018-10-12T22:38:12.912Z,41.40
2018-10-12T22:40:40.720Z,41.20
2018-10-12T22:43:46.453Z,41.50
2018-10-12T22:46:17.673Z,41.20
2018-10-12T22:48:51.475Z,41.50
2018-10-12T22:51:26.250Z,41.60
2018-10-12T22:59:49.354Z,41.30
2018-10-12T23:02:18.120Z,40.90
2018-10-12T23:04:45.824Z,41.10
2018-10-12T23:07:14.450Z,40.80
2018-10-12T23:09:42.188Z,40.80
2018-10-12T23:15:13.392Z,40.50
2018-10-12T23:17:44.337Z,40.70
2018-10-12T23:20:13.415Z,40.60
2018-10-12T23:22:41.688Z,40.70
2018-10-12T23:28:06.220Z,40.70
2018-10-12T23:30:34.548Z,40.50
2018-10-12T23:36:11.047Z,40.50
2018-10-12T23:39:45.132Z,40.40
2018-10-12T23:42:13.090Z,40.50
2018-10-12T23:45:00.395Z,40.60
2018-10-12T23:47:29.193Z,40.50
2018-10-12T23:50:00.821Z,40.60
2018-10-12T23:52:41.810Z,40.40
2018-10-12T23:55:10.112Z,40.90
2018-10-12T23:57:43.552Z,40.60
